sensor_id;sensor_type;location;lat;lon;timestamp;pressure;altitude;pressure_sealevel;temperature
15680;BMP180;15488;48.114;11.532;2023-06-22T00:01:21;95465.00;;;29.50
15680;BMP180;15488;48.114;11.532;2023-06-22T00:03:50;95451.00;;;29.40
15680;BMP180;15488;48.114;11.532;2023-06-22T00:06:18;95448.00;;;29.40
15680;BMP180;15488;48.114;11.532;2023-06-22T00:08:45;95448.00;;;29.40
15680;BMP180;15488;48.114;11.532;2023-06-22T00:11:12;95449.00;;;29.40
15680;BMP180;15488;48.114;11.532;2023-06-22T00:13:40;95453.00;;;29.30
15680;BMP180;15488;48.114;11.532;2023-06-22T00:16:08;95465.00;;;29.30
15680;BMP180;15488;48.114;11.532;2023-06-22T00:18:35;95464.00;;;29.30
15680;BMP180;15488;48.114;11.532;2023-06-22T00:21:04;95449.00;;;29.30
15680;BMP180;15488;48.114;11.532;2023-06-22T00:23:32;95458.00;;;29.30
15680;BMP180;15488;48.114;11.532;2023-06-22T00:26:00;95452.00;;;29.30
15680;BMP180;15488;48.114;11.532;2023-06-22T00:28:28;95459.00;;;29.30
15680;BMP180;15488;48.114;11.532;2023-06-22T00:30:56;95454.00;;;29.30
15680;BMP180;15488;48.114;11.532;2023-06-22T00:33:23;95463.00;;;29.30
15680;BMP180;15488;48.114;11.532;2023-06-22T00:35:51;95459.00;;;29.30
15680;BMP180;15488;48.114;11.532;2023-06-22T00:38:21;95454.00;;;29.20
15680;BMP180;15488;48.114;11.532;2023-06-22T00:40:48;95462.00;;;29.20
15680;BMP180;15488;48.114;11.532;2023-06-22T00:43:16;95461.00;;;29.20
15680;BMP180;15488;48.114;11.532;2023-06-22T00:45:43;95447.00;;;29.10
15680;BMP180;15488;48.114;11.532;2023-06-22T00:48:10;95444.00;;;29.10
15680;BMP180;15488;48.114;11.532;2023-06-22T00:50:39;95450.00;;;29.10
15680;BMP180;15488;48.114;11.532;2023-06-22T00:53:07;95448.00;;;29.10
15680;BMP180;15488;48.114;11.532;2023-06-22T00:55:38;95450.00;;;29.00
15680;BMP180;15488;48.114;11.532;2023-06-22T00:58:06;95458.00;;;29.00
15680;BMP180;15488;48.114;11.532;2023-06-22T01:00:36;95449.00;;;29.00
15680;BMP180;15488;48.114;11.532;2023-06-22T01:03:04;95436.00;;;29.00
15680;BMP180;15488;48.114;11.532;2023-06-22T01:05:35;95434.00;;;29.00
15680;BMP180;15488;48.114;11.532;2023-06-22T01:08:11;95423.00;;;28.90
15680;BMP180;15488;48.114;11.532;2023-06-22T01:10:44;95422.00;;;28.90
15680;BMP180;15488;48.114;11.532;2023-06-22T01:13:19;95424.00;;;28.90
15680;BMP180;15488;48.114;11.532;2023-06-22T01:15:53;95420.00;;;28.90
15680;BMP180;15488;48.114;11.532;2023-06-22T01:18:23;95416.00;;;28.80
15680;BMP180;15488;48.114;11.532;2023-06-22T01:20:53;95414.00;;;28.80
15680;BMP180;15488;48.114;11.532;2023-06-22T01:23:27;95411.00;;;28.80
15680;BMP180;15488;48.114;11.532;2023-06-22T01:26:05;95409.00;;;28.80
15680;BMP180;15488;48.114;11.532;2023-06-22T01:28:45;95415.00;;;28.80
15680;BMP180;15488;48.114;11.532;2023-06-22T01:31:15;95421.00;;;28.70
15680;BMP180;15488;48.114;11.532;2023-06-22T01:33:45;95410.00;;;28.70
15680;BMP180;15488;48.114;11.532;2023-06-22T01:36:15;95402.00;;;28.70
15680;BMP180;15488;48.114;11.532;2023-06-22T01:38:44;95398.00;;;28.70
15680;BMP180;15488;48.114;11.532;2023-06-22T01:41:12;95403.00;;;28.60
15680;BMP180;15488;48.114;11.532;2023-06-22T01:43:41;95396.00;;;28.60
15680;BMP180;15488;48.114;11.532;2023-06-22T01:46:10;95396.00;;;28.60
15680;BMP180;15488;48.114;11.532;2023-06-22T01:48:39;95402.00;;;28.60
15680;BMP180;15488;48.114;11.532;2023-06-22T01:51:07;95349.00;;;28.50
15680;BMP180;15488;48.114;11.532;2023-06-22T01:53:34;95395.00;;;28.50
15680;BMP180;15488;48.114;11.532;2023-06-22T01:56:02;95394.00;;;28.50
15680;BMP180;15488;48.114;11.532;2023-06-22T01:58:30;95393.00;;;28.50
15680;BMP180;15488;48.114;11.532;2023-06-22T02:01:06;95400.00;;;28.50
15680;BMP180;15488;48.114;11.532;2023-06-22T02:03:40;95404.00;;;28.40
15680;BMP180;15488;48.114;11.532;2023-06-22T02:06:12;95399.00;;;28.40
15680;BMP180;15488;48.114;11.532;2023-06-22T02:08:46;95399.00;;;28.30
15680;BMP180;15488;48.114;11.532;2023-06-22T02:11:15;95397.00;;;28.40
15680;BMP180;15488;48.114;11.532;2023-06-22T02:13:45;95406.00;;;28.30
15680;BMP180;15488;48.114;11.532;2023-06-22T02:16:15;95412.00;;;28.30
15680;BMP180;15488;48.114;11.532;2023-06-22T02:18:46;95400.00;;;28.30
15680;BMP180;15488;48.114;11.532;2023-06-22T02:21:17;95406.00;;;28.30
15680;BMP180;15488;48.114;11.532;2023-06-22T02:23:44;95406.00;;;28.30
15680;BMP180;15488;48.114;11.532;2023-06-22T02:26:12;95400.00;;;28.30
15680;BMP180;15488;48.114;11.532;2023-06-22T02:28:40;95400.00;;;28.20
15680;BMP180;15488;48.114;11.532;2023-06-22T02:31:07;95405.00;;;28.20
15680;BMP180;15488;48.114;11.532;2023-06-22T02:33:36;95409.00;;;28.20
15680;BMP180;15488;48.114;11.532;2023-06-22T02:36:04;95413.00;;;28.20
15680;BMP180;15488;48.114;11.532;2023-06-22T02:38:35;95416.00;;;28.20
15680;BMP180;15488;48.114;11.532;2023-06-22T02:41:02;95421.00;;;28.20
15680;BMP180;15488;48.114;11.532;2023-06-22T02:43:30;95427.00;;;28.10
15680;BMP180;15488;48.114;11.532;2023-06-22T02:45:57;95430.00;;;28.10
15680;BMP180;15488;48.114;11.532;2023-06-22T02:48:25;95432.00;;;28.10
15680;BMP180;15488;48.114;11.532;2023-06-22T02:50:54;95436.00;;;28.10
15680;BMP180;15488;48.114;11.532;2023-06-22T02:53:21;95447.00;;;28.10
15680;BMP180;15488;48.114;11.532;2023-06-22T02:55:48;95439.00;;;28.10
15680;BMP180;15488;48.114;11.532;2023-06-22T02:58:16;95430.00;;;28.00
15680;BMP180;15488;48.114;11.532;2023-06-22T03:00:43;95425.00;;;28.00
15680;BMP180;15488;48.114;11.532;2023-06-22T03:03:11;95422.00;;;28.00
15680;BMP180;15488;48.114;11.532;2023-06-22T03:05:38;95412.00;;;28.00
15680;BMP180;15488;48.114;11.532;2023-06-22T03:08:07;95410.00;;;28.00
15680;BMP180;15488;48.114;11.532;2023-06-22T03:10:35;95419.00;;;28.00
15680;BMP180;15488;48.114;11.532;2023-06-22T03:13:02;95418.00;;;28.00
15680;BMP180;15488;48.114;11.532;2023-06-22T03:15:30;95421.00;;;28.00
15680;BMP180;15488;48.114;11.532;2023-06-22T03:17:57;95421.00;;;27.90
15680;BMP180;15488;48.114;11.532;2023-06-22T03:20:25;95416.00;;;27.90
15680;BMP180;15488;48.114;11.532;2023-06-22T03:22:56;95415.00;;;27.90
15680;BMP180;15488;48.114;11.532;2023-06-22T03:25:24;95411.00;;;27.90
15680;BMP180;15488;48.114;11.532;2023-06-22T03:27:52;95403.00;;;27.90
15680;BMP180;15488;48.114;11.532;2023-06-22T03:30:19;95403.00;;;27.90
15680;BMP180;15488;48.114;11.532;2023-06-22T03:32:47;95401.00;;;27.90
15680;BMP180;15488;48.114;11.532;2023-06-22T03:35:14;95410.00;;;27.90
15680;BMP180;15488;48.114;11.532;2023-06-22T03:37:42;95402.00;;;27.80
15680;BMP180;15488;48.114;11.532;2023-06-22T03:40:10;95403.00;;;27.80
15680;BMP180;15488;48.114;11.532;2023-06-22T03:42:39;95411.00;;;27.80
15680;BMP180;15488;48.114;11.532;2023-06-22T03:45:07;95413.00;;;27.80
15680;BMP180;15488;48.114;11.532;2023-06-22T03:47:35;95413.00;;;27.80
15680;BMP180;15488;48.114;11.532;2023-06-22T03:50:02;95411.00;;;27.80
15680;BMP180;15488;48.114;11.532;2023-06-22T03:52:30;95415.00;;;27.80
15680;BMP180;15488;48.114;11.532;2023-06-22T03:54:58;95417.00;;;27.80
15680;BMP180;15488;48.114;11.532;2023-06-22T03:57:26;95416.00;;;27.80
15680;BMP180;15488;48.114;11.532;2023-06-22T03:59:56;95417.00;;;27.80
15680;BMP180;15488;48.114;11.532;2023-06-22T04:02:24;95420.00;;;27.80
15680;BMP180;15488;48.114;11.532;2023-06-22T04:04:51;95424.00;;;27.80
15680;BMP180;15488;48.114;11.532;2023-06-22T04:07:19;95428.00;;;27.80
15680;BMP180;15488;48.114;11.532;2023-06-22T04:09:46;95436.00;;;27.80
15680;BMP180;15488;48.114;11.532;2023-06-22T04:12:14;95434.00;;;27.80
15680;BMP180;15488;48.114;11.532;2023-06-22T04:14:41;95428.00;;;27.80
15680;BMP180;15488;48.114;11.532;2023-06-22T04:17:10;95427.00;;;27.80
15680;BMP180;15488;48.114;11.532;2023-06-22T04:19:41;95425.00;;;27.80
15680;BMP180;15488;48.114;11.532;2023-06-22T04:22:08;95422.00;;;27.90
15680;BMP180;15488;48.114;11.532;2023-06-22T04:24:36;95415.00;;;27.90
15680;BMP180;15488;48.114;11.532;2023-06-22T04:27:04;95422.00;;;27.90
15680;BMP180;15488;48.114;11.532;2023-06-22T04:29:32;95419.00;;;27.90
15680;BMP180;15488;48.114;11.532;2023-06-22T04:32:00;95422.00;;;27.90
15680;BMP180;15488;48.114;11.532;2023-06-22T04:34:30;95418.00;;;27.90
15680;BMP180;15488;48.114;11.532;2023-06-22T04:36:58;95412.00;;;27.90
15680;BMP180;15488;48.114;11.532;2023-06-22T04:39:25;95418.00;;;27.90
15680;BMP180;15488;48.114;11.532;2023-06-22T04:41:53;95415.00;;;27.90
15680;BMP180;15488;48.114;11.532;2023-06-22T04:44:26;95406.00;;;27.90
15680;BMP180;15488;48.114;11.532;2023-06-22T04:46:55;95414.00;;;28.00
15680;BMP180;15488;48.114;11.532;2023-06-22T04:49:26;95415.00;;;28.00
15680;BMP180;15488;48.114;11.532;2023-06-22T04:52:00;95404.00;;;28.00
15680;BMP180;15488;48.114;11.532;2023-06-22T04:54:27;95404.00;;;28.00
15680;BMP180;15488;48.114;11.532;2023-06-22T04:56:55;95410.00;;;28.00
15680;BMP180;15488;48.114;11.532;2023-06-22T04:59:23;95417.00;;;28.10
15680;BMP180;15488;48.114;11.532;2023-06-22T05:01:54;95413.00;;;28.10
15680;BMP180;15488;48.114;11.532;2023-06-22T05:04:22;95404.00;;;28.10
15680;BMP180;15488;48.114;11.532;2023-06-22T05:06:50;95399.00;;;28.10
15680;BMP180;15488;48.114;11.532;2023-06-22T05:09:19;95404.00;;;28.10
15680;BMP180;15488;48.114;11.532;2023-06-22T05:11:47;95403.00;;;28.20
15680;BMP180;15488;48.114;11.532;2023-06-22T05:14:15;95403.00;;;28.20
15680;BMP180;15488;48.114;11.532;2023-06-22T05:16:42;95399.00;;;28.20
15680;BMP180;15488;48.114;11.532;2023-06-22T05:19:10;95399.00;;;28.20
15680;BMP180;15488;48.114;11.532;2023-06-22T05:21:38;95399.00;;;28.30
15680;BMP180;15488;48.114;11.532;2023-06-22T05:24:05;95387.00;;;28.30
15680;BMP180;15488;48.114;11.532;2023-06-22T05:26:35;95392.00;;;28.30
15680;BMP180;15488;48.114;11.532;2023-06-22T05:29:03;95401.00;;;28.40
15680;BMP180;15488;48.114;11.532;2023-06-22T05:31:30;95398.00;;;28.40
15680;BMP180;15488;48.114;11.532;2023-06-22T05:33:58;95394.00;;;28.40
15680;BMP180;15488;48.114;11.532;2023-06-22T05:36:26;95395.00;;;28.50
15680;BMP180;15488;48.114;11.532;2023-06-22T05:38:53;95385.00;;;28.50
15680;BMP180;15488;48.114;11.532;2023-06-22T05:41:21;95383.00;;;28.50
15680;BMP180;15488;48.114;11.532;2023-06-22T05:43:50;95386.00;;;28.50
15680;BMP180;15488;48.114;11.532;2023-06-22T05:46:18;95394.00;;;28.60
15680;BMP180;15488;48.114;11.532;2023-06-22T05:48:46;95393.00;;;28.60
15680;BMP180;15488;48.114;11.532;2023-06-22T05:51:13;95388.00;;;28.60
15680;BMP180;15488;48.114;11.532;2023-06-22T05:53:40;95387.00;;;28.60
15680;BMP180;15488;48.114;11.532;2023-06-22T05:56:08;95390.00;;;28.60
15680;BMP180;15488;48.114;11.532;2023-06-22T05:58:36;95396.00;;;28.70
15680;BMP180;15488;48.114;11.532;2023-06-22T06:01:04;95403.00;;;28.70
15680;BMP180;15488;48.114;11.532;2023-06-22T06:03:32;95406.00;;;28.70
15680;BMP180;15488;48.114;11.532;2023-06-22T06:05:59;95404.00;;;28.80
15680;BMP180;15488;48.114;11.532;2023-06-22T06:08:28;95403.00;;;28.80
15680;BMP180;15488;48.114;11.532;2023-06-22T06:10:56;95405.00;;;28.80
15680;BMP180;15488;48.114;11.532;2023-06-22T06:13:23;95397.00;;;28.80
15680;BMP180;15488;48.114;11.532;2023-06-22T06:15:51;95399.00;;;28.80
15680;BMP180;15488;48.114;11.532;2023-06-22T06:18:22;95390.00;;;28.90
15680;BMP180;15488;48.114;11.532;2023-06-22T06:20:50;95387.00;;;28.90
15680;BMP180;15488;48.114;11.532;2023-06-22T06:23:17;95383.00;;;28.90
15680;BMP180;15488;48.114;11.532;2023-06-22T06:25:44;95385.00;;;29.00
15680;BMP180;15488;48.114;11.532;2023-06-22T06:28:12;95381.00;;;29.00
15680;BMP180;15488;48.114;11.532;2023-06-22T06:30:39;95384.00;;;29.00
15680;BMP180;15488;48.114;11.532;2023-06-22T06:33:07;95388.00;;;29.10
15680;BMP180;15488;48.114;11.532;2023-06-22T06:35:36;95375.00;;;29.10
15680;BMP180;15488;48.114;11.532;2023-06-22T06:38:03;95375.00;;;29.20
15680;BMP180;15488;48.114;11.532;2023-06-22T06:40:31;95376.00;;;29.20
15680;BMP180;15488;48.114;11.532;2023-06-22T06:42:58;95375.00;;;29.20
15680;BMP180;15488;48.114;11.532;2023-06-22T06:45:26;95376.00;;;29.30
15680;BMP180;15488;48.114;11.532;2023-06-22T06:47:55;95371.00;;;29.30
15680;BMP180;15488;48.114;11.532;2023-06-22T06:50:22;95373.00;;;29.30
15680;BMP180;15488;48.114;11.532;2023-06-22T06:52:51;95372.00;;;29.40
15680;BMP180;15488;48.114;11.532;2023-06-22T06:55:18;95362.00;;;29.50
15680;BMP180;15488;48.114;11.532;2023-06-22T06:57:46;95361.00;;;29.40
15680;BMP180;15488;48.114;11.532;2023-06-22T07:00:17;95361.00;;;29.50
15680;BMP180;15488;48.114;11.532;2023-06-22T07:02:45;95367.00;;;29.60
15680;BMP180;15488;48.114;11.532;2023-06-22T07:05:14;95374.00;;;29.60
15680;BMP180;15488;48.114;11.532;2023-06-22T07:07:41;95372.00;;;29.60
15680;BMP180;15488;48.114;11.532;2023-06-22T07:10:11;95371.00;;;29.60
15680;BMP180;15488;48.114;11.532;2023-06-22T07:12:38;95364.00;;;29.70
15680;BMP180;15488;48.114;11.532;2023-06-22T07:15:07;95369.00;;;29.80
15680;BMP180;15488;48.114;11.532;2023-06-22T07:17:35;95366.00;;;29.80
15680;BMP180;15488;48.114;11.532;2023-06-22T07:20:04;95371.00;;;29.90
15680;BMP180;15488;48.114;11.532;2023-06-22T07:22:38;95369.00;;;29.90
15680;BMP180;15488;48.114;11.532;2023-06-22T07:25:10;95364.00;;;30.00
15680;BMP180;15488;48.114;11.532;2023-06-22T07:27:56;95327.00;;;30.10
15680;BMP180;15488;48.114;11.532;2023-06-22T07:30:24;95349.00;;;30.20
15680;BMP180;15488;48.114;11.532;2023-06-22T07:32:52;95355.00;;;30.20
15680;BMP180;15488;48.114;11.532;2023-06-22T07:35:19;95363.00;;;30.30
15680;BMP180;15488;48.114;11.532;2023-06-22T07:37:47;95355.00;;;30.40
15680;BMP180;15488;48.114;11.532;2023-06-22T07:40:16;95345.00;;;30.40
15680;BMP180;15488;48.114;11.532;2023-06-22T07:42:43;95333.00;;;30.50
15680;BMP180;15488;48.114;11.532;2023-06-22T07:45:11;95341.00;;;30.60
15680;BMP180;15488;48.114;11.532;2023-06-22T07:47:38;95341.00;;;30.70
15680;BMP180;15488;48.114;11.532;2023-06-22T07:50:06;95300.00;;;30.70
15680;BMP180;15488;48.114;11.532;2023-06-22T07:52:36;95329.00;;;30.80
15680;BMP180;15488;48.114;11.532;2023-06-22T07:55:04;95338.00;;;30.90
15680;BMP180;15488;48.114;11.532;2023-06-22T07:57:33;95337.00;;;31.00
15680;BMP180;15488;48.114;11.532;2023-06-22T08:00:03;95336.00;;;31.00
15680;BMP180;15488;48.114;11.532;2023-06-22T08:02:37;95335.00;;;31.10
15680;BMP180;15488;48.114;11.532;2023-06-22T08:05:05;95333.00;;;31.20
15680;BMP180;15488;48.114;11.532;2023-06-22T08:07:34;95334.00;;;31.20
15680;BMP180;15488;48.114;11.532;2023-06-22T08:10:03;95343.00;;;31.30
15680;BMP180;15488;48.114;11.532;2023-06-22T08:12:32;95340.00;;;31.40
15680;BMP180;15488;48.114;11.532;2023-06-22T08:15:00;95335.00;;;31.50
15680;BMP180;15488;48.114;11.532;2023-06-22T08:17:27;95335.00;;;31.50
15680;BMP180;15488;48.114;11.532;2023-06-22T08:19:55;95327.00;;;31.50
15680;BMP180;15488;48.114;11.532;2023-06-22T08:22:23;95330.00;;;31.60
15680;BMP180;15488;48.114;11.532;2023-06-22T08:24:50;95331.00;;;31.80
15680;BMP180;15488;48.114;11.532;2023-06-22T08:27:17;95328.00;;;31.90
15680;BMP180;15488;48.114;11.532;2023-06-22T08:29:48;95330.00;;;32.00
15680;BMP180;15488;48.114;11.532;2023-06-22T08:32:16;95324.00;;;32.10
15680;BMP180;15488;48.114;11.532;2023-06-22T08:34:44;95324.00;;;32.20
15680;BMP180;15488;48.114;11.532;2023-06-22T08:37:11;95330.00;;;32.20
15680;BMP180;15488;48.114;11.532;2023-06-22T08:39:39;95331.00;;;32.30
15680;BMP180;15488;48.114;11.532;2023-06-22T08:42:07;95327.00;;;32.40
15680;BMP180;15488;48.114;11.532;2023-06-22T08:44:34;95324.00;;;32.40
15680;BMP180;15488;48.114;11.532;2023-06-22T08:47:03;95331.00;;;32.50
15680;BMP180;15488;48.114;11.532;2023-06-22T08:49:31;95321.00;;;32.50
15680;BMP180;15488;48.114;11.532;2023-06-22T08:51:58;95331.00;;;32.60
15680;BMP180;15488;48.114;11.532;2023-06-22T08:54:26;95324.00;;;32.70
15680;BMP180;15488;48.114;11.532;2023-06-22T08:56:53;95323.00;;;32.70
15680;BMP180;15488;48.114;11.532;2023-06-22T08:59:20;95319.00;;;32.80
15680;BMP180;15488;48.114;11.532;2023-06-22T09:01:48;95315.00;;;32.90
15680;BMP180;15488;48.114;11.532;2023-06-22T09:04:17;95314.00;;;32.90
15680;BMP180;15488;48.114;11.532;2023-06-22T09:06:44;95317.00;;;33.00
15680;BMP180;15488;48.114;11.532;2023-06-22T09:09:13;95306.00;;;33.10
15680;BMP180;15488;48.114;11.532;2023-06-22T09:11:40;95312.00;;;33.20
15680;BMP180;15488;48.114;11.532;2023-06-22T09:14:08;95316.00;;;33.20
15680;BMP180;15488;48.114;11.532;2023-06-22T09:16:36;95316.00;;;33.30
15680;BMP180;15488;48.114;11.532;2023-06-22T09:19:03;95318.00;;;33.40
15680;BMP180;15488;48.114;11.532;2023-06-22T09:21:32;95308.00;;;33.40
15680;BMP180;15488;48.114;11.532;2023-06-22T09:24:00;95308.00;;;33.50
15680;BMP180;15488;48.114;11.532;2023-06-22T09:26:27;95314.00;;;33.50
15680;BMP180;15488;48.114;11.532;2023-06-22T09:28:55;95312.00;;;33.60
15680;BMP180;15488;48.114;11.532;2023-06-22T09:31:24;95303.00;;;33.70
15680;BMP180;15488;48.114;11.532;2023-06-22T09:33:52;95306.00;;;33.80
15680;BMP180;15488;48.114;11.532;2023-06-22T09:36:21;95304.00;;;33.90
15680;BMP180;15488;48.114;11.532;2023-06-22T09:38:50;95309.00;;;34.00
15680;BMP180;15488;48.114;11.532;2023-06-22T09:41:24;95312.00;;;34.00
15680;BMP180;15488;48.114;11.532;2023-06-22T09:43:52;95301.00;;;34.00
15680;BMP180;15488;48.114;11.532;2023-06-22T09:46:19;95297.00;;;34.10
15680;BMP180;15488;48.114;11.532;2023-06-22T09:48:47;95297.00;;;34.20
15680;BMP180;15488;48.114;11.532;2023-06-22T09:51:15;95297.00;;;34.20
15680;BMP180;15488;48.114;11.532;2023-06-22T09:53:42;95289.00;;;34.30
15680;BMP180;15488;48.114;11.532;2023-06-22T09:56:11;95290.00;;;34.40
15680;BMP180;15488;48.114;11.532;2023-06-22T09:58:41;95289.00;;;34.40
15680;BMP180;15488;48.114;11.532;2023-06-22T10:01:09;95280.00;;;34.50
15680;BMP180;15488;48.114;11.532;2023-06-22T10:03:37;95283.00;;;34.50
15680;BMP180;15488;48.114;11.532;2023-06-22T10:06:05;95284.00;;;34.60
15680;BMP180;15488;48.114;11.532;2023-06-22T10:08:32;95282.00;;;34.60
15680;BMP180;15488;48.114;11.532;2023-06-22T10:11:00;95277.00;;;34.70
15680;BMP180;15488;48.114;11.532;2023-06-22T10:13:28;95276.00;;;34.80
15680;BMP180;15488;48.114;11.532;2023-06-22T10:15:56;95274.00;;;34.90
15680;BMP180;15488;48.114;11.532;2023-06-22T10:18:23;95271.00;;;34.90
15680;BMP180;15488;48.114;11.532;2023-06-22T10:20:51;95270.00;;;35.00
15680;BMP180;15488;48.114;11.532;2023-06-22T10:23:19;95278.00;;;35.10
15680;BMP180;15488;48.114;11.532;2023-06-22T10:25:47;95269.00;;;35.20
15680;BMP180;15488;48.114;11.532;2023-06-22T10:28:15;95272.00;;;35.30
15680;BMP180;15488;48.114;11.532;2023-06-22T10:30:44;95267.00;;;35.30
15680;BMP180;15488;48.114;11.532;2023-06-22T10:33:12;95268.00;;;35.40
15680;BMP180;15488;48.114;11.532;2023-06-22T10:35:39;95238.00;;;35.50
15680;BMP180;15488;48.114;11.532;2023-06-22T10:38:07;95255.00;;;35.60
15680;BMP180;15488;48.114;11.532;2023-06-22T10:40:34;95252.00;;;35.70
15680;BMP180;15488;48.114;11.532;2023-06-22T10:43:02;95251.00;;;35.80
15680;BMP180;15488;48.114;11.532;2023-06-22T10:45:29;95248.00;;;35.90
15680;BMP180;15488;48.114;11.532;2023-06-22T10:47:58;95252.00;;;36.00
15680;BMP180;15488;48.114;11.532;2023-06-22T10:50:26;95249.00;;;36.10
15680;BMP180;15488;48.114;11.532;2023-06-22T10:52:54;95245.00;;;36.20
15680;BMP180;15488;48.114;11.532;2023-06-22T10:55:22;95244.00;;;36.30
15680;BMP180;15488;48.114;11.532;2023-06-22T10:57:49;95242.00;;;36.50
15680;BMP180;15488;48.114;11.532;2023-06-22T11:00:17;95238.00;;;36.60
15680;BMP180;15488;48.114;11.532;2023-06-22T11:02:45;95241.00;;;36.70
15680;BMP180;15488;48.114;11.532;2023-06-22T11:05:13;95239.00;;;36.80
15680;BMP180;15488;48.114;11.532;2023-06-22T11:07:42;95237.00;;;36.90
15680;BMP180;15488;48.114;11.532;2023-06-22T11:10:10;95240.00;;;36.90
15680;BMP180;15488;48.114;11.532;2023-06-22T11:12:38;95233.00;;;37.00
15680;BMP180;15488;48.114;11.532;2023-06-22T11:15:06;95237.00;;;37.00
15680;BMP180;15488;48.114;11.532;2023-06-22T11:17:34;95238.00;;;37.10
15680;BMP180;15488;48.114;11.532;2023-06-22T11:20:02;95240.00;;;37.10
15680;BMP180;15488;48.114;11.532;2023-06-22T11:22:37;95236.00;;;37.10
15680;BMP180;15488;48.114;11.532;2023-06-22T11:25:06;95237.00;;;37.20
15680;BMP180;15488;48.114;11.532;2023-06-22T11:27:34;95237.00;;;37.20
15680;BMP180;15488;48.114;11.532;2023-06-22T11:30:01;95222.00;;;37.30
15680;BMP180;15488;48.114;11.532;2023-06-22T11:32:29;95225.00;;;37.30
15680;BMP180;15488;48.114;11.532;2023-06-22T11:34:56;95225.00;;;37.40
15680;BMP180;15488;48.114;11.532;2023-06-22T11:37:24;95222.00;;;37.50
15680;BMP180;15488;48.114;11.532;2023-06-22T11:39:53;95213.00;;;37.60
15680;BMP180;15488;48.114;11.532;2023-06-22T11:42:21;95210.00;;;37.70
15680;BMP180;15488;48.114;11.532;2023-06-22T11:44:49;95210.00;;;37.80
15680;BMP180;15488;48.114;11.532;2023-06-22T11:47:17;95207.00;;;37.90
15680;BMP180;15488;48.114;11.532;2023-06-22T11:49:44;95196.00;;;38.00
15680;BMP180;15488;48.114;11.532;2023-06-22T11:52:12;95211.00;;;38.00
15680;BMP180;15488;48.114;11.532;2023-06-22T11:54:39;95198.00;;;38.10
15680;BMP180;15488;48.114;11.532;2023-06-22T11:57:08;95205.00;;;38.30
15680;BMP180;15488;48.114;11.532;2023-06-22T11:59:35;95204.00;;;38.40
15680;BMP180;15488;48.114;11.532;2023-06-22T12:02:03;95196.00;;;38.50
15680;BMP180;15488;48.114;11.532;2023-06-22T12:04:32;95186.00;;;38.70
15680;BMP180;15488;48.114;11.532;2023-06-22T12:06:59;95201.00;;;38.80
15680;BMP180;15488;48.114;11.532;2023-06-22T12:09:27;95196.00;;;38.90
15680;BMP180;15488;48.114;11.532;2023-06-22T12:11:54;95183.00;;;38.90
15680;BMP180;15488;48.114;11.532;2023-06-22T12:14:23;95184.00;;;39.00
15680;BMP180;15488;48.114;11.532;2023-06-22T12:16:50;95185.00;;;39.10
15680;BMP180;15488;48.114;11.532;2023-06-22T12:19:18;95172.00;;;39.30
15680;BMP180;15488;48.114;11.532;2023-06-22T12:21:45;95170.00;;;39.40
15680;BMP180;15488;48.114;11.532;2023-06-22T12:24:12;95169.00;;;39.60
15680;BMP180;15488;48.114;11.532;2023-06-22T12:26:40;95158.00;;;39.70
15680;BMP180;15488;48.114;11.532;2023-06-22T12:29:07;95159.00;;;39.80
15680;BMP180;15488;48.114;11.532;2023-06-22T12:31:36;95151.00;;;40.00
15680;BMP180;15488;48.114;11.532;2023-06-22T12:34:04;95159.00;;;40.10
15680;BMP180;15488;48.114;11.532;2023-06-22T12:36:32;95148.00;;;40.20
15680;BMP180;15488;48.114;11.532;2023-06-22T12:38:59;95144.00;;;40.30
15680;BMP180;15488;48.114;11.532;2023-06-22T12:41:27;95151.00;;;40.40
15680;BMP180;15488;48.114;11.532;2023-06-22T12:43:54;95152.00;;;40.40
15680;BMP180;15488;48.114;11.532;2023-06-22T12:46:21;95142.00;;;40.40
15680;BMP180;15488;48.114;11.532;2023-06-22T12:48:50;95144.00;;;40.40
15680;BMP180;15488;48.114;11.532;2023-06-22T12:51:21;95139.00;;;40.50
15680;BMP180;15488;48.114;11.532;2023-06-22T12:53:50;95143.00;;;40.50
15680;BMP180;15488;48.114;11.532;2023-06-22T12:56:17;95141.00;;;40.50
15680;BMP180;15488;48.114;11.532;2023-06-22T12:58:45;95146.00;;;40.50
15680;BMP180;15488;48.114;11.532;2023-06-22T13:01:12;95142.00;;;40.50
15680;BMP180;15488;48.114;11.532;2023-06-22T13:03:41;95145.00;;;40.50
15680;BMP180;15488;48.114;11.532;2023-06-22T13:06:10;95152.00;;;40.60
15680;BMP180;15488;48.114;11.532;2023-06-22T13:08:37;95148.00;;;40.70
15680;BMP180;15488;48.114;11.532;2023-06-22T13:11:05;95144.00;;;40.70
15680;BMP180;15488;48.114;11.532;2023-06-22T13:13:32;95150.00;;;40.80
15680;BMP180;15488;48.114;11.532;2023-06-22T13:16:00;95153.00;;;40.80
15680;BMP180;15488;48.114;11.532;2023-06-22T13:18:27;95156.00;;;41.00
15680;BMP180;15488;48.114;11.532;2023-06-22T13:20:55;95149.00;;;41.10
15680;BMP180;15488;48.114;11.532;2023-06-22T13:23:25;95149.00;;;41.20
15680;BMP180;15488;48.114;11.532;2023-06-22T13:25:53;95137.00;;;41.40
15680;BMP180;15488;48.114;11.532;2023-06-22T13:28:20;95137.00;;;41.50
15680;BMP180;15488;48.114;11.532;2023-06-22T13:30:48;95135.00;;;41.60
15680;BMP180;15488;48.114;11.532;2023-06-22T13:33:15;95135.00;;;41.80
15680;BMP180;15488;48.114;11.532;2023-06-22T13:35:43;95138.00;;;42.00
15680;BMP180;15488;48.114;11.532;2023-06-22T13:38:10;95132.00;;;42.20
15680;BMP180;15488;48.114;11.532;2023-06-22T13:40:39;95131.00;;;42.40
15680;BMP180;15488;48.114;11.532;2023-06-22T13:43:07;95130.00;;;42.60
15680;BMP180;15488;48.114;11.532;2023-06-22T13:45:35;95136.00;;;42.90
15680;BMP180;15488;48.114;11.532;2023-06-22T13:48:02;95136.00;;;43.20
15680;BMP180;15488;48.114;11.532;2023-06-22T13:50:30;95129.00;;;43.50
15680;BMP180;15488;48.114;11.532;2023-06-22T13:52:57;95127.00;;;43.80
15680;BMP180;15488;48.114;11.532;2023-06-22T13:55:25;95125.00;;;44.20
15680;BMP180;15488;48.114;11.532;2023-06-22T13:57:54;95123.00;;;44.90
15680;BMP180;15488;48.114;11.532;2023-06-22T14:00:21;95117.00;;;45.50
15680;BMP180;15488;48.114;11.532;2023-06-22T14:02:49;95116.00;;;46.20